Time;durP1;ratioP1;P1;durP2;ratioP2;P2;SDS_P1;SDS_P2;PMS_P1;PMS_P2;Temp;Humidity;BMP_temperature;BMP_pressure;BME280_temperature;BME280_humidity;BME280_pressure;Samples;Min_cycle;Max_cycle;Signal;HPM_P1;HPM_P2
2023/01/15 00:01:23;;;;;;;5.32;1.10;;;6.60;99.90;;;;;;5105725;27;20069;-81
2023/01/15 00:03:49;;;;;;;6.88;1.23;;;6.50;99.90;;;;;;5107219;27;20554;-81
2023/01/15 00:06:17;;;;;;;13.40;1.42;;;6.50;99.90;;;;;;5129905;27;20031;-81
2023/01/15 00:08:43;;;;;;;7.78;1.75;;;6.50;99.90;;;;;;5119539;27;20041;-83
2023/01/15 00:11:08;;;;;;;7.55;1.00;;;6.50;99.90;;;;;;5109236;27;20038;-81
2023/01/15 00:13:34;;;;;;;5.57;0.98;;;6.50;99.90;;;;;;5095897;27;20035;-81
2023/01/15 00:16:04;;;;;;;15.40;1.42;;;6.50;99.90;;;;;;5135453;27;20035;-81
2023/01/15 00:18:30;;;;;;;9.48;1.13;;;6.40;99.90;;;;;;5114593;27;20054;-81
2023/01/15 00:21:07;;;;;;;9.30;1.20;;;6.40;99.90;;;;;;5132418;27;20106;-81
2023/01/15 00:29:04;;;;;;;12.07;1.42;;;6.40;99.90;;;;;;5141175;27;20248;-81
2023/01/15 00:31:33;;;;;;;9.75;1.30;;;6.40;99.90;;;;;;5117442;27;20447;-81
2023/01/15 00:33:59;;;;;;;15.20;1.35;;;6.50;99.90;;;;;;5111919;27;20047;-81
2023/01/15 00:36:25;;;;;;;7.28;0.90;;;6.40;99.90;;;;;;5121679;27;20102;-81
2023/01/15 00:38:51;;;;;;;15.52;2.17;;;6.40;99.90;;;;;;5118319;27;20122;-81
2023/01/15 00:41:17;;;;;;;9.70;1.55;;;6.40;99.90;;;;;;5121159;27;20038;-81
2023/01/15 00:43:43;;;;;;;10.18;1.80;;;6.40;99.90;;;;;;5101730;27;20394;-81
2023/01/15 00:46:09;;;;;;;8.15;0.93;;;6.40;99.90;;;;;;5136232;27;20541;-81
2023/01/15 00:48:38;;;;;;;8.52;1.30;;;6.40;99.90;;;;;;5105349;27;20138;-81
2023/01/15 00:51:04;;;;;;;13.10;1.02;;;7.50;99.90;;;;;;5118354;27;20039;-81
2023/01/15 00:53:30;;;;;;;12.70;1.48;;;6.40;99.90;;;;;;5116333;27;20034;-81
2023/01/15 00:55:56;;;;;;;9.70;1.33;;;6.40;99.90;;;;;;5101831;27;20038;-81
2023/01/15 00:58:22;;;;;;;11.80;1.92;;;6.40;99.90;;;;;;5113682;27;20477;-81
2023/01/15 01:00:56;;;;;;;14.52;1.48;;;6.40;99.90;;;;;;5116908;27;20165;-81
2023/01/15 01:03:22;;;;;;;6.82;2.00;;;6.40;99.90;;;;;;5101106;27;20124;-81
2023/01/15 01:05:48;;;;;;;10.30;1.23;;;6.40;99.90;;;;;;5124174;27;20473;-82
2023/01/15 01:08:13;;;;;;;12.25;1.00;;;6.40;99.90;;;;;;5102323;27;20072;-81
2023/01/15 01:10:39;;;;;;;13.38;1.50;;;6.40;99.90;;;;;;5120567;27;20045;-81
2023/01/15 01:13:05;;;;;;;10.75;1.83;;;6.40;99.90;;;;;;5125732;27;20034;-81
2023/01/15 01:15:37;;;;;;;13.68;1.42;;;6.40;99.90;;;;;;5120422;27;20038;-81
2023/01/15 01:18:05;;;;;;;7.70;1.60;;;6.50;99.90;;;;;;5115088;27;20092;-81
2023/01/15 01:20:31;;;;;;;13.40;1.65;;;6.50;99.90;;;;;;5138203;27;20038;-81
2023/01/15 01:22:57;;;;;;;12.27;1.67;;;6.80;99.90;;;;;;5116008;27;20046;-81
2023/01/15 01:25:22;;;;;;;8.05;1.70;;;6.60;99.90;;;;;;5118624;27;20042;-81
2023/01/15 01:27:48;;;;;;;9.10;1.48;;;6.50;99.90;;;;;;5100336;28;20411;-81
2023/01/15 01:30:15;;;;;;;10.90;1.35;;;6.50;99.90;;;;;;5104643;27;20116;-81
2023/01/15 01:32:44;;;;;;;11.05;1.67;;;6.50;99.90;;;;;;5135945;27;20036;-81
2023/01/15 01:35:10;;;;;;;9.35;1.50;;;6.50;99.90;;;;;;5125937;27;20039;-81
2023/01/15 01:37:36;;;;;;;11.82;1.60;;;6.50;99.90;;;;;;5101052;27;20041;-81
2023/01/15 01:40:02;;;;;;;9.30;1.38;;;6.50;99.90;;;;;;5120598;27;20027;-81
2023/01/15 01:42:28;;;;;;;13.00;1.80;;;6.50;99.90;;;;;;5119429;27;20049;-81
2023/01/15 01:44:59;;;;;;;11.88;1.70;;;6.50;99.90;;;;;;5111611;27;20047;-81
2023/01/15 01:47:27;;;;;;;9.27;1.70;;;6.50;99.90;;;;;;5097331;27;20484;-81
2023/01/15 01:49:58;;;;;;;14.23;1.88;;;6.50;99.90;;;;;;5120698;27;20043;-82
2023/01/15 01:52:29;;;;;;;10.63;1.60;;;6.50;99.90;;;;;;5135945;27;20039;-81
2023/01/15 01:54:55;;;;;;;11.85;1.63;;;6.50;99.90;;;;;;5114655;27;20497;-81
2023/01/15 01:57:22;;;;;;;7.90;1.33;;;6.50;99.90;;;;;;5104945;28;20063;-81
2023/01/15 01:59:48;;;;;;;10.25;1.70;;;6.50;99.90;;;;;;5125454;27;20027;-81
2023/01/15 02:02:17;;;;;;;13.80;1.98;;;6.40;99.90;;;;;;5130020;27;20043;-81
2023/01/15 02:04:43;;;;;;;7.10;1.10;;;6.50;99.90;;;;;;5091275;28;20044;-81
2023/01/15 02:07:09;;;;;;;13.60;1.88;;;6.40;99.90;;;;;;5099206;27;20039;-81
2023/01/15 02:09:35;;;;;;;9.15;1.52;;;6.40;99.90;;;;;;5119904;27;20485;-81
2023/01/15 02:12:10;;;;;;;8.25;1.02;;;6.40;99.90;;;;;;5114802;27;20043;-81
2023/01/15 02:14:57;;;;;;;14.18;2.15;;;6.40;99.90;;;;;;5105106;27;20453;-81
2023/01/15 02:17:32;;;;;;;9.25;1.17;;;6.40;99.90;;;;;;5103857;27;20046;-81
2023/01/15 02:20:29;;;;;;;15.30;1.48;;;6.40;99.90;;;;;;5123455;27;20035;-81
2023/01/15 02:23:01;;;;;;;11.77;1.77;;;6.40;99.90;;;;;;5115427;27;20050;-81
2023/01/15 02:25:26;;;;;;;9.88;1.20;;;6.40;99.90;;;;;;5137676;27;20043;-81
2023/01/15 02:28:00;;;;;;;18.40;2.22;;;6.40;99.90;;;;;;5137246;27;20087;-81
2023/01/15 02:30:34;;;;;;;6.15;1.15;;;7.00;99.90;;;;;;5115331;27;20153;-81
2023/01/15 02:33:11;;;;;;;10.93;1.88;;;6.40;99.90;;;;;;5116488;27;20035;-81
2023/01/15 02:35:48;;;;;;;15.68;2.45;;;6.40;99.90;;;;;;5135360;27;20028;-81
2023/01/15 02:38:21;;;;;;;8.65;1.65;;;6.40;99.90;;;;;;5126967;27;20043;-81
2023/01/15 02:40:52;;;;;;;12.20;1.20;;;6.40;99.90;;;;;;5098352;27;20039;-81
2023/01/15 02:43:20;;;;;;;12.20;1.20;;;5.80;99.90;;;;;;5133787;27;20046;-81
2023/01/15 02:45:50;;;;;;;10.07;1.55;;;6.50;99.90;;;;;;5120946;27;20038;-81
2023/01/15 02:48:19;;;;;;;14.52;1.83;;;6.50;99.90;;;;;;5121123;27;20047;-81
2023/01/15 02:50:51;;;;;;;11.35;1.85;;;6.50;99.90;;;;;;5137314;27;20050;-81
2023/01/15 02:53:22;;;;;;;11.05;1.40;;;6.50;99.90;;;;;;5124552;27;20031;-81
2023/01/15 02:55:51;;;;;;;11.85;1.83;;;6.50;99.90;;;;;;5120406;27;20049;-81
2023/01/15 02:58:23;;;;;;;14.75;1.73;;;6.50;99.90;;;;;;5146550;27;20027;-81
2023/01/15 03:00:53;;;;;;;11.95;1.63;;;6.50;99.90;;;;;;5121983;27;20031;-81
2023/01/15 03:03:41;;;;;;;10.75;1.50;;;6.50;99.90;;;;;;5114664;27;20043;-81
2023/01/15 03:06:17;;;;;;;10.65;1.70;;;6.50;99.90;;;;;;5105376;27;20621;-81
2023/01/15 03:08:43;;;;;;;10.88;2.22;;;6.50;99.90;;;;;;5129949;27;20039;-81
2023/01/15 03:11:12;;;;;;;13.13;1.85;;;6.50;99.90;;;;;;5126454;27;20045;-81
2023/01/15 03:13:50;;;;;;;8.68;1.38;;;6.50;99.90;;;;;;5117292;27;20073;-81
2023/01/15 03:16:37;;;;;;;13.32;1.83;;;6.50;99.90;;;;;;5095720;27;20102;-81
2023/01/15 03:19:19;;;;;;;16.30;1.92;;;6.50;99.90;;;;;;5128890;27;20079;-81
2023/01/15 03:21:44;;;;;;;12.35;1.60;;;6.50;99.90;;;;;;5124468;27;20553;-81
2023/01/15 03:24:13;;;;;;;12.10;1.30;;;6.50;99.90;;;;;;5139161;27;20034;-81
2023/01/15 03:26:39;;;;;;;11.15;1.50;;;6.40;99.90;;;;;;5122609;27;20039;-81
2023/01/15 03:29:07;;;;;;;11.13;1.77;;;6.40;99.90;;;;;;5119078;27;20381;-81
2023/01/15 03:31:34;;;;;;;11.02;1.45;;;6.40;99.90;;;;;;5139688;27;21561;-81
2023/01/15 03:34:00;;;;;;;11.65;1.83;;;6.40;99.90;;;;;;5139693;27;20050;-81
2023/01/15 03:36:26;;;;;;;12.95;1.98;;;6.40;99.90;;;;;;5119823;27;20030;-81
2023/01/15 03:38:53;;;;;;;9.80;1.95;;;6.30;99.90;;;;;;5118240;27;20050;-81
2023/01/15 03:41:28;;;;;;;15.20;1.70;;;6.30;99.90;;;;;;5102804;27;20444;-81
2023/01/15 03:44:14;;;;;;;11.05;2.08;;;6.30;99.90;;;;;;5114105;27;20051;-81
2023/01/15 03:47:03;;;;;;;12.95;1.77;;;6.30;99.90;;;;;;5123766;27;20121;-81
2023/01/15 03:50:01;;;;;;;13.52;1.58;;;6.30;99.90;;;;;;5136217;27;20122;-81
2023/01/15 03:52:46;;;;;;;9.80;1.48;;;6.30;99.90;;;;;;5131684;27;20221;-81
2023/01/15 03:55:23;;;;;;;8.55;1.50;;;6.30;99.90;;;;;;5140523;27;20061;-81
2023/01/15 03:57:56;;;;;;;17.63;1.63;;;6.30;99.90;;;;;;5107558;27;20099;-81
2023/01/15 04:00:27;;;;;;;15.93;1.77;;;6.30;99.90;;;;;;5119559;27;20035;-81
2023/01/15 04:02:58;;;;;;;13.13;1.52;;;6.30;99.90;;;;;;5120052;27;20043;-81
2023/01/15 04:05:25;;;;;;;10.35;1.20;;;6.40;99.90;;;;;;5133695;27;20051;-81
2023/01/15 04:07:53;;;;;;;15.75;1.80;;;6.40;99.90;;;;;;5134814;27;20149;-81
2023/01/15 04:10:18;;;;;;;11.75;1.50;;;6.30;99.90;;;;;;5111399;27;20125;-80
2023/01/15 04:12:44;;;;;;;9.35;1.40;;;6.30;99.90;;;;;;5124420;27;20110;-81
2023/01/15 04:15:11;;;;;;;10.50;1.75;;;6.30;99.90;;;;;;5123679;27;20054;-81
2023/01/15 04:17:37;;;;;;;10.85;1.60;;;6.40;99.90;;;;;;5142150;27;20035;-81
2023/01/15 04:20:06;;;;;;;14.32;1.95;;;6.40;99.90;;;;;;5129186;27;20031;-81
2023/01/15 04:22:32;;;;;;;17.02;1.95;;;6.40;99.90;;;;;;5135401;27;20432;-81
2023/01/15 04:24:58;;;;;;;12.23;1.70;;;6.30;99.90;;;;;;5117930;27;20057;-81
2023/01/15 04:27:25;;;;;;;10.05;1.50;;;6.30;99.90;;;;;;5126215;27;20039;-81
2023/01/15 04:29:51;;;;;;;13.70;1.58;;;6.30;99.90;;;;;;5139418;27;20053;-81
2023/01/15 04:32:17;;;;;;;8.77;1.27;;;6.30;99.90;;;;;;5121208;27;20027;-81
2023/01/15 04:34:42;;;;;;;12.27;1.63;;;6.30;99.90;;;;;;5101986;27;20046;-81
2023/01/15 04:37:08;;;;;;;14.80;1.40;;;6.30;99.90;;;;;;5117621;27;20031;-81
2023/01/15 04:39:33;;;;;;;12.20;1.40;;;6.20;99.90;;;;;;5120878;27;20038;-81
2023/01/15 04:44:43;;;;;;;13.07;1.70;;;6.20;99.90;;;;;;5138707;27;20079;-81
2023/01/15 04:47:09;;;;;;;12.27;1.88;;;6.20;99.90;;;;;;5127381;27;20046;-81
2023/01/15 04:49:34;;;;;;;9.77;1.73;;;6.20;99.90;;;;;;5135769;27;20488;-81
2023/01/15 04:52:00;;;;;;;17.38;1.95;;;6.20;99.90;;;;;;5122335;27;20039;-81
2023/01/15 04:54:26;;;;;;;12.70;2.38;;;6.20;99.90;;;;;;5121612;27;20054;-81
2023/01/15 04:56:53;;;;;;;14.48;1.50;;;6.20;99.90;;;;;;5129969;27;20055;-81
2023/01/15 04:59:21;;;;;;;11.82;2.25;;;6.10;99.90;;;;;;5141516;27;20087;-81
2023/01/15 05:01:48;;;;;;;14.02;1.70;;;6.20;99.90;;;;;;5137127;27;20473;-81
2023/01/15 05:04:13;;;;;;;10.05;1.50;;;6.20;99.90;;;;;;5111831;27;20079;-81
2023/01/15 05:06:39;;;;;;;11.85;1.63;;;6.20;99.90;;;;;;5122381;27;20031;-81
2023/01/15 05:09:05;;;;;;;11.07;1.30;;;6.20;99.90;;;;;;5130434;27;20066;-81
2023/01/15 05:11:34;;;;;;;10.98;1.77;;;6.10;99.90;;;;;;5129956;27;20027;-81
2023/01/15 05:14:00;;;;;;;10.93;1.77;;;6.10;99.90;;;;;;5117262;27;20549;-81
2023/01/15 05:16:27;;;;;;;10.73;1.60;;;6.10;99.90;;;;;;5102755;27;20031;-81
2023/01/15 05:18:56;;;;;;;16.98;1.50;;;6.00;99.90;;;;;;5125227;27;20163;-81
2023/01/15 05:21:27;;;;;;;8.07;1.15;;;6.00;99.90;;;;;;5141798;27;20031;-80
2023/01/15 05:23:56;;;;;;;11.02;1.17;;;6.00;99.90;;;;;;5119410;27;20055;-81
2023/01/15 05:26:22;;;;;;;8.70;1.45;;;6.00;99.90;;;;;;5121976;27;20139;-81
2023/01/15 05:28:49;;;;;;;10.52;1.83;;;6.00;99.90;;;;;;5100928;27;20087;-81
2023/01/15 05:31:17;;;;;;;10.20;1.80;;;6.00;99.90;;;;;;5116899;27;20398;-81
2023/01/15 05:33:44;;;;;;;11.20;1.67;;;5.90;99.90;;;;;;5120260;27;20382;-81
2023/01/15 05:36:11;;;;;;;9.75;1.95;;;5.90;99.90;;;;;;5100941;27;20061;-81
2023/01/15 05:38:38;;;;;;;14.10;1.85;;;5.90;99.90;;;;;;5118660;27;20048;-81
2023/01/15 05:41:47;;;;;;;10.48;1.50;;;5.90;99.90;;;;;;5142017;27;20027;-81
2023/01/15 05:43:54;;;;;;;10.82;1.58;;;5.90;99.90;;;;;;5118930;27;20051;-81
2023/01/15 05:46:20;;;;;;;15.27;1.83;;;5.90;99.90;;;;;;5133065;27;20899;-81
2023/01/15 05:48:46;;;;;;;8.77;1.20;;;5.80;99.90;;;;;;5113840;27;20138;-80
2023/01/15 05:51:12;;;;;;;12.95;1.73;;;5.80;99.90;;;;;;5116141;27;20035;-81
2023/01/15 05:53:37;;;;;;;11.25;1.55;;;5.80;99.90;;;;;;5091020;27;20074;-80
2023/01/15 05:56:04;;;;;;;9.25;1.25;;;5.80;99.90;;;;;;5138221;27;20035;-81
2023/01/15 05:58:30;;;;;;;10.13;2.00;;;5.80;99.90;;;;;;5112812;28;20064;-81
2023/01/15 06:00:55;;;;;;;13.77;2.00;;;5.80;99.90;;;;;;5114361;27;20042;-81
2023/01/15 06:03:23;;;;;;;12.63;1.67;;;5.80;99.90;;;;;;5136261;27;20030;-81
2023/01/15 06:05:55;;;;;;;10.73;1.30;;;5.80;99.90;;;;;;5121001;27;20452;-81
2023/01/15 06:08:22;;;;;;;11.57;1.58;;;5.80;99.90;;;;;;5108732;28;20061;-80
2023/01/15 06:10:48;;;;;;;9.77;1.50;;;5.70;99.90;;;;;;5132417;27;20039;-80
2023/01/15 06:13:15;;;;;;;8.90;1.40;;;5.80;99.90;;;;;;5140560;27;20042;-80
2023/01/15 06:15:41;;;;;;;8.23;1.48;;;5.70;99.90;;;;;;5140867;27;20039;-80
2023/01/15 06:18:06;;;;;;;9.73;1.20;;;5.80;99.90;;;;;;5121663;27;20104;-80
2023/01/15 06:20:36;;;;;;;11.68;1.50;;;5.60;99.90;;;;;;5126189;27;20035;-80
2023/01/15 06:23:02;;;;;;;12.23;1.40;;;5.60;99.90;;;;;;5115743;27;20438;-80
2023/01/15 06:25:27;;;;;;;6.70;1.10;;;5.60;99.90;;;;;;5090290;28;20038;-80
2023/01/15 06:27:53;;;;;;;7.43;1.08;;;5.50;99.90;;;;;;5113100;27;20095;-80
2023/01/15 06:30:19;;;;;;;10.63;1.48;;;5.50;99.90;;;;;;5133271;27;20046;-80
2023/01/15 06:32:45;;;;;;;8.57;1.27;;;5.50;99.90;;;;;;5130723;27;20540;-80
2023/01/15 06:35:11;;;;;;;10.52;1.55;;;5.50;99.90;;;;;;5103685;27;20131;-80
2023/01/15 06:37:37;;;;;;;9.50;1.80;;;5.50;99.90;;;;;;5138355;27;20035;-80
2023/01/15 06:40:03;;;;;;;13.75;1.77;;;5.50;99.90;;;;;;5110060;27;20396;-80
2023/01/15 06:47:58;;;;;;;7.75;1.25;;;5.40;99.90;;;;;;5140079;27;20055;-80
2023/01/15 06:50:24;;;;;;;7.55;1.23;;;5.40;99.90;;;;;;5115809;27;20055;-80
2023/01/15 06:52:50;;;;;;;13.57;1.25;;;5.40;99.90;;;;;;5137058;27;20473;-80
2023/01/15 06:55:17;;;;;;;16.08;1.27;;;5.40;99.90;;;;;;5121986;27;20077;-80
2023/01/15 06:57:43;;;;;;;13.82;2.10;;;5.30;99.90;;;;;;5138385;27;20032;-80
2023/01/15 07:00:10;;;;;;;10.50;1.40;;;5.50;99.90;;;;;;5139715;27;20042;-79
2023/01/15 07:02:35;;;;;;;10.52;1.27;;;5.30;99.90;;;;;;5119016;27;20099;-79
2023/01/15 07:05:01;;;;;;;9.68;1.25;;;5.30;99.90;;;;;;5118550;27;20032;-80
2023/01/15 07:07:28;;;;;;;11.68;1.30;;;5.30;99.90;;;;;;5114808;27;20054;-80
2023/01/15 07:09:54;;;;;;;11.65;2.55;;;5.20;99.90;;;;;;5110298;27;20070;-81
2023/01/15 07:12:19;;;;;;;9.85;1.40;;;5.20;99.90;;;;;;5100944;27;20078;-81
2023/01/15 07:14:45;;;;;;;11.00;1.33;;;5.30;99.90;;;;;;5138920;27;20034;-81
2023/01/15 07:17:11;;;;;;;11.13;1.50;;;5.20;99.90;;;;;;5140493;27;20039;-80
2023/01/15 07:19:37;;;;;;;8.13;1.10;;;5.20;99.90;;;;;;5136296;27;21586;-81
2023/01/15 07:22:03;;;;;;;11.32;1.58;;;5.30;99.90;;;;;;5142914;27;20042;-81
2023/01/15 07:24:29;;;;;;;12.30;1.50;;;5.30;99.90;;;;;;5127419;27;20476;-81
2023/01/15 07:26:55;;;;;;;8.52;1.30;;;5.30;99.90;;;;;;5119318;27;20035;-81
2023/01/15 07:29:22;;;;;;;13.60;1.52;;;5.30;99.90;;;;;;5116642;27;20039;-81
2023/01/15 07:31:48;;;;;;;14.57;1.48;;;5.30;99.90;;;;;;5110171;27;20047;-82
2023/01/15 07:34:13;;;;;;;8.18;1.50;;;5.30;99.90;;;;;;5122630;27;20546;-81
2023/01/15 07:36:39;;;;;;;9.32;1.48;;;5.30;99.90;;;;;;5115758;27;20118;-82
2023/01/15 07:39:06;;;;;;;10.80;0.98;;;5.30;99.90;;;;;;5093980;27;20059;-81
2023/01/15 07:49:49;;;;;;;11.18;1.55;;;5.40;99.90;;;;;;5138857;27;20039;-81
2023/01/15 07:52:16;;;;;;;8.65;1.00;;;5.40;99.90;;;;;;5130191;27;20509;-82
2023/01/15 07:54:43;;;;;;;13.52;1.30;;;5.40;99.90;;;;;;5097965;27;20062;-81
2023/01/15 07:57:10;;;;;;;7.97;1.20;;;5.50;99.90;;;;;;5128134;27;20030;-83
2023/01/15 07:59:36;;;;;;;12.80;1.17;;;5.40;99.90;;;;;;5096990;27;20034;-80
2023/01/15 08:02:01;;;;;;;7.53;1.35;;;5.40;99.90;;;;;;5129987;27;20046;-81
2023/01/15 08:04:27;;;;;;;6.55;1.00;;;5.40;99.90;;;;;;5124754;27;20038;-81
2023/01/15 08:06:53;;;;;;;11.80;1.52;;;5.40;99.90;;;;;;5117936;27;20038;-80
2023/01/15 08:09:18;;;;;;;5.53;0.95;;;5.40;99.90;;;;;;5116227;27;20031;-80
2023/01/15 08:17:12;;;;;;;15.07;1.07;;;5.40;99.90;;;;;;5118290;27;20041;-81
2023/01/15 08:19:38;;;;;;;6.78;1.00;;;5.40;99.90;;;;;;5123161;27;20292;-81
2023/01/15 08:22:03;;;;;;;5.80;1.02;;;5.40;99.90;;;;;;5116037;27;20127;-82
2023/01/15 08:24:29;;;;;;;7.75;1.27;;;5.40;99.90;;;;;;5136215;27;20039;-80
2023/01/15 08:26:55;;;;;;;11.05;1.23;;;5.40;99.90;;;;;;5109743;27;20750;-80
2023/01/15 08:29:21;;;;;;;6.60;1.27;;;5.40;99.90;;;;;;5135909;27;20027;-81
2023/01/15 08:31:47;;;;;;;7.30;1.42;;;5.40;99.90;;;;;;5119533;27;20118;-81
2023/01/15 08:34:13;;;;;;;12.00;1.65;;;5.50;99.90;;;;;;5123455;27;20489;-80
2023/01/15 08:36:39;;;;;;;11.95;1.48;;;5.50;99.90;;;;;;5130243;27;20038;-81
2023/01/15 08:39:04;;;;;;;7.60;1.27;;;5.70;99.90;;;;;;5126004;27;20042;-81
2023/01/15 08:41:30;;;;;;;5.65;0.85;;;5.80;99.90;;;;;;5119333;27;20038;-81
2023/01/15 08:43:56;;;;;;;10.80;1.50;;;5.90;99.90;;;;;;5116256;27;20063;-80
2023/01/15 08:46:22;;;;;;;12.73;1.08;;;5.80;99.90;;;;;;5115826;27;20059;-82
2023/01/15 08:48:48;;;;;;;8.23;1.35;;;5.90;99.90;;;;;;5123273;27;20420;-81
2023/01/15 08:51:14;;;;;;;9.25;1.60;;;5.90;99.90;;;;;;5117378;27;20039;-82
2023/01/15 08:53:40;;;;;;;13.95;1.73;;;5.80;99.90;;;;;;5144431;27;20032;-82
2023/01/15 08:56:23;;;;;;;14.32;1.15;;;5.80;99.90;;;;;;5121196;27;20045;-83
2023/01/15 08:58:49;;;;;;;10.18;1.77;;;5.60;99.90;;;;;;5112387;27;20122;-81
2023/01/15 09:01:15;;;;;;;9.55;1.17;;;6.10;99.90;;;;;;5123712;27;20469;-82
2023/01/15 09:03:42;;;;;;;10.90;1.27;;;5.40;99.90;;;;;;5120111;27;20042;-83
2023/01/15 09:06:09;;;;;;;7.38;0.95;;;5.30;99.90;;;;;;5093368;27;20507;-81
2023/01/15 09:08:35;;;;;;;8.40;2.13;;;5.30;99.90;;;;;;5118812;27;20069;-82
2023/01/15 09:11:04;;;;;;;11.45;1.00;;;5.30;99.90;;;;;;5129997;27;20486;-82
2023/01/15 09:13:30;;;;;;;12.70;1.65;;;5.30;99.90;;;;;;5123229;27;20077;-82
2023/01/15 09:16:01;;;;;;;9.35;1.02;;;5.30;99.90;;;;;;5119184;27;20070;-82
2023/01/15 09:18:28;;;;;;;8.27;1.10;;;5.30;99.90;;;;;;5137256;27;20072;-82
2023/01/15 09:20:53;;;;;;;11.20;1.92;;;5.30;99.90;;;;;;5137001;27;20031;-82
2023/01/15 09:23:19;;;;;;;10.05;1.20;;;5.30;99.90;;;;;;5137677;27;20603;-81
2023/01/15 09:25:54;;;;;;;5.80;0.80;;;5.30;99.90;;;;;;5142128;27;20046;-81
2023/01/15 09:28:20;;;;;;;8.73;0.90;;;5.20;99.90;;;;;;5118773;27;20035;-81
2023/01/15 09:30:46;;;;;;;8.15;1.40;;;5.20;99.90;;;;;;5136491;27;20095;-82
2023/01/15 09:33:11;;;;;;;10.23;2.03;;;5.20;99.90;;;;;;5114939;27;20390;-81
2023/01/15 09:35:37;;;;;;;9.73;1.20;;;5.20;99.90;;;;;;5136519;27;21636;-82
2023/01/15 09:38:03;;;;;;;8.35;1.23;;;5.20;99.90;;;;;;5111542;27;20279;-81
2023/01/15 09:40:35;;;;;;;9.23;1.17;;;5.10;99.90;;;;;;5100476;27;20034;-82
2023/01/15 09:43:32;;;;;;;11.10;1.38;;;5.00;99.90;;;;;;5116126;27;20110;-82
2023/01/15 09:46:24;;;;;;;6.80;1.00;;;5.00;99.90;;;;;;5137951;27;20089;-81
2023/01/15 09:49:27;;;;;;;6.47;1.17;;;5.00;99.90;;;;;;5129021;27;20051;-82
2023/01/15 09:52:06;;;;;;;10.20;1.45;;;5.00;99.90;;;;;;5144082;27;20034;-82
2023/01/15 09:54:39;;;;;;;8.90;1.40;;;5.00;99.90;;;;;;5138224;27;20035;-81
2023/01/15 09:57:14;;;;;;;5.10;1.00;;;5.10;99.90;;;;;;5128751;27;20053;-82
2023/01/15 09:59:44;;;;;;;7.47;1.50;;;5.20;99.90;;;;;;5137541;27;20068;-82
2023/01/15 10:02:26;;;;;;;9.40;1.30;;;5.30;99.90;;;;;;5138316;27;20039;-82
2023/01/15 10:04:57;;;;;;;12.40;1.48;;;5.30;99.90;;;;;;5122783;27;20038;-82
2023/01/15 10:07:33;;;;;;;11.52;1.33;;;5.30;99.90;;;;;;5116538;27;20046;-81
2023/01/15 10:10:03;;;;;;;7.78;1.52;;;5.40;99.90;;;;;;5100709;28;20039;-81
2023/01/15 10:12:34;;;;;;;8.38;0.90;;;5.40;99.90;;;;;;5134147;27;20505;-82
2023/01/15 10:15:06;;;;;;;9.13;1.15;;;5.40;99.90;;;;;;5141207;27;20031;-82
2023/01/15 10:17:40;;;;;;;10.25;0.98;;;5.40;99.90;;;;;;5110499;28;20039;-81
2023/01/15 10:20:37;;;;;;;21.45;1.98;;;5.50;99.90;;;;;;5124324;27;20041;-81
2023/01/15 10:23:28;;;;;;;7.93;1.05;;;5.50;99.90;;;;;;5098974;27;20055;-82
2023/01/15 10:26:11;;;;;;;7.85;1.33;;;5.60;99.90;;;;;;5125859;27;20069;-81
2023/01/15 10:28:57;;;;;;;11.07;1.50;;;5.70;99.90;;;;;;5141437;27;20042;-82
2023/01/15 10:31:33;;;;;;;9.48;1.23;;;5.80;99.90;;;;;;5117543;27;20042;-82
2023/01/15 10:34:05;;;;;;;9.93;1.85;;;5.90;99.90;;;;;;5124246;27;20030;-82
2023/01/15 10:36:38;;;;;;;11.45;1.30;;;5.90;99.90;;;;;;5126891;27;20038;-82
2023/01/15 10:39:25;;;;;;;6.72;1.40;;;6.00;99.90;;;;;;5117759;27;20043;-81
2023/01/15 10:42:11;;;;;;;8.70;1.13;;;6.00;99.90;;;;;;5113602;27;20747;-81
2023/01/15 10:45:00;;;;;;;10.73;1.40;;;6.00;99.90;;;;;;5121651;27;20031;-80
2023/01/15 10:47:32;;;;;;;9.73;1.15;;;6.00;99.90;;;;;;5094306;27;20501;-81
2023/01/15 10:50:02;;;;;;;10.95;1.67;;;6.10;99.90;;;;;;5110551;27;20502;-80
2023/01/15 10:52:35;;;;;;;13.20;1.40;;;6.20;99.90;;;;;;5095593;28;20039;-81
2023/01/15 10:55:08;;;;;;;9.43;1.70;;;6.20;99.90;;;;;;5114497;27;20103;-81
2023/01/15 10:57:54;;;;;;;12.18;2.55;;;6.20;99.90;;;;;;5122094;27;20051;-81
2023/01/15 11:00:21;;;;;;;9.93;1.80;;;6.20;99.90;;;;;;5118806;27;20168;-81
2023/01/15 11:03:00;;;;;;;11.65;1.27;;;6.20;99.90;;;;;;5109462;27;20043;-80
2023/01/15 11:05:26;;;;;;;6.57;1.08;;;6.30;99.90;;;;;;5131906;27;20027;-81
2023/01/15 11:07:52;;;;;;;6.88;1.42;;;6.20;99.90;;;;;;5115149;27;20546;-80
2023/01/15 11:10:21;;;;;;;12.80;1.42;;;6.20;99.90;;;;;;5113402;27;20504;-82
2023/01/15 11:21:29;;;;;;;9.10;1.67;;;6.20;99.90;;;;;;5125679;27;20043;-82
2023/01/15 11:23:57;;;;;;;6.82;1.63;;;6.20;99.90;;;;;;5107409;27;20052;-83
2023/01/15 11:26:31;;;;;;;12.55;1.83;;;6.20;99.90;;;;;;5107452;27;20043;-83
2023/01/15 11:28:59;;;;;;;8.88;1.23;;;6.30;99.90;;;;;;5135514;27;20037;-83
2023/01/15 11:31:36;;;;;;;14.15;2.03;;;6.40;99.90;;;;;;5132094;27;20035;-83
2023/01/15 11:34:05;;;;;;;20.38;2.20;;;6.50;99.90;;;;;;5123952;27;20489;-83
2023/01/15 11:36:32;;;;;;;11.40;2.08;;;6.50;99.90;;;;;;5124189;27;20034;-82
2023/01/15 11:38:58;;;;;;;6.10;1.30;;;6.50;99.90;;;;;;5107603;27;20038;-82
2023/01/15 11:52:48;;;;;;;11.00;2.22;;;6.90;99.90;;;;;;5119467;27;20035;-80
2023/01/15 11:55:19;;;;;;;10.70;1.55;;;6.90;99.90;;;;;;5115501;27;20040;-81
2023/01/15 11:57:46;;;;;;;14.55;1.52;;;6.90;99.90;;;;;;5141866;27;20047;-82
2023/01/15 12:00:28;;;;;;;12.88;2.38;;;7.00;99.90;;;;;;5104693;27;20034;-81
2023/01/15 12:03:00;;;;;;;8.43;1.60;;;7.10;99.90;;;;;;5122497;27;20047;-81
2023/01/15 12:05:29;;;;;;;9.98;1.55;;;7.50;99.90;;;;;;5120917;27;20043;-81
2023/01/15 12:08:00;;;;;;;10.25;1.42;;;7.20;99.90;;;;;;5138257;27;20070;-81
2023/01/15 12:11:03;;;;;;;12.75;1.63;;;7.20;99.90;;;;;;5111772;27;20062;-81
2023/01/15 12:13:36;;;;;;;9.70;1.60;;;7.30;99.90;;;;;;5123894;27;20051;-82
2023/01/15 12:16:06;;;;;;;19.40;2.70;;;7.30;99.90;;;;;;5103898;27;20041;-82
2023/01/15 12:19:09;;;;;;;11.68;2.63;;;7.20;99.90;;;;;;5101445;27;20035;-80
2023/01/15 12:21:54;;;;;;;11.25;1.80;;;7.20;99.90;;;;;;5134028;27;20045;-81
2023/01/15 12:24:46;;;;;;;11.45;1.80;;;7.20;99.90;;;;;;5124870;27;20103;-82
2023/01/15 12:27:37;;;;;;;9.75;2.30;;;7.20;99.90;;;;;;5113201;27;20043;-83
2023/01/15 12:30:08;;;;;;;7.22;1.58;;;7.30;99.90;;;;;;5112282;27;20046;-82
2023/01/15 12:32:41;;;;;;;10.23;1.55;;;7.40;99.90;;;;;;5113099;27;20046;-80
2023/01/15 12:35:20;;;;;;;14.63;1.80;;;7.40;99.90;;;;;;5124128;27;20027;-81
2023/01/15 12:37:52;;;;;;;14.80;2.20;;;7.50;99.90;;;;;;5136626;27;20023;-81
2023/01/15 12:40:24;;;;;;;9.57;1.40;;;7.50;99.90;;;;;;5121914;27;20107;-81
2023/01/15 12:45:45;;;;;;;9.90;1.60;;;7.50;99.90;;;;;;5139881;27;20141;-81
2023/01/15 12:48:27;;;;;;;11.05;1.98;;;7.40;99.90;;;;;;5089298;27;20083;-80
2023/01/15 12:51:05;;;;;;;12.00;1.75;;;7.40;99.90;;;;;;5114844;27;20139;-80
2023/01/15 12:53:50;;;;;;;13.25;1.42;;;7.40;99.90;;;;;;5092654;27;20126;-80
2023/01/15 12:56:53;;;;;;;9.20;1.40;;;7.40;99.90;;;;;;5128579;27;20031;-80
2023/01/15 12:59:35;;;;;;;11.57;1.67;;;7.40;99.90;;;;;;5110716;27;20554;-80
2023/01/15 13:02:20;;;;;;;12.25;2.30;;;7.30;99.90;;;;;;5097341;27;20035;-80
2023/01/15 13:04:52;;;;;;;15.63;2.08;;;7.30;99.90;;;;;;5133908;27;20034;-80
2023/01/15 13:07:30;;;;;;;5.75;1.63;;;7.20;99.90;;;;;;5121210;27;20128;-81
2023/01/15 13:10:06;;;;;;;16.15;2.10;;;7.10;99.90;;;;;;5134357;27;20031;-80
2023/01/15 13:12:33;;;;;;;16.52;2.08;;;7.00;99.90;;;;;;5136622;27;20057;-80
2023/01/15 13:15:00;;;;;;;12.73;1.88;;;7.00;99.90;;;;;;5128309;27;20172;-79
2023/01/15 13:17:51;;;;;;;8.00;2.30;;;6.80;99.90;;;;;;5134363;27;20046;-79
2023/01/15 13:20:24;;;;;;;10.07;1.50;;;6.80;99.90;;;;;;5136068;27;20063;-79
2023/01/15 13:23:27;;;;;;;7.00;1.83;;;7.60;99.90;;;;;;5084744;28;20126;-79
2023/01/15 13:26:40;;;;;;;10.48;2.00;;;6.20;99.90;;;;;;5110087;27;20051;-80
2023/01/15 13:29:35;;;;;;;7.00;1.45;;;5.90;99.90;;;;;;5046740;28;20061;-79
2023/01/15 13:32:11;;;;;;;5.38;1.02;;;5.70;99.90;;;;;;5029513;28;20559;-79
2023/01/15 13:35:00;;;;;;;12.75;1.95;;;6.00;99.90;;;;;;5044224;28;20120;-79
2023/01/15 13:37:30;;;;;;;10.70;1.50;;;5.60;99.90;;;;;;5018540;28;20045;-81
2023/01/15 13:40:16;;;;;;;3.20;0.75;;;5.50;99.90;;;;;;5034665;28;20059;-80
2023/01/15 13:42:46;;;;;;;6.55;1.30;;;5.50;99.90;;;;;;5045080;28;20037;-80
2023/01/15 13:45:12;;;;;;;6.78;1.60;;;5.50;99.90;;;;;;5049946;28;20071;-79
2023/01/15 13:47:42;;;;;;;4.60;0.73;;;5.50;99.90;;;;;;5030380;28;20056;-79
2023/01/15 13:50:40;;;;;;;5.60;1.00;;;5.50;99.90;;;;;;5047137;28;20068;-79
2023/01/15 13:53:11;;;;;;;8.25;1.85;;;5.50;99.90;;;;;;5023945;28;20056;-80
2023/01/15 13:55:42;;;;;;;9.45;1.40;;;5.50;99.90;;;;;;5045493;28;20080;-79
2023/01/15 13:58:28;;;;;;;6.93;1.10;;;5.50;99.90;;;;;;5045093;28;20052;-79
2023/01/15 14:01:17;;;;;;;6.07;1.15;;;5.50;99.90;;;;;;5047692;28;20061;-79